Time;durP1;ratioP1;P1;durP2;ratioP2;P2;SDS_P1;SDS_P2;PMS_P1;PMS_P2;Temp;Humidity;BMP_temperature;BMP_pressure;BME280_temperature;BME280_humidity;BME280_pressure;Samples;Min_cycle;Max_cycle;Signal;HPM_P1;HPM_P2
2023/05/13 00:01:37;;;;;;;10.50;8.43;;;;;;;;;;4995596;28;20418;-63
2023/05/13 00:04:05;;;;;;;8.83;7.10;;;;;;;;;;4995284;28;20484;-63
2023/05/13 00:06:31;;;;;;;10.60;6.93;;;;;;;;;;4995476;28;20901;-63
2023/05/13 00:08:58;;;;;;;10.43;7.90;;;;;;;;;;4995372;28;20430;-63
2023/05/13 00:11:24;;;;;;;9.10;8.23;;;;;;;;;;4995422;28;20440;-63
2023/05/13 00:13:50;;;;;;;8.67;6.23;;;;;;;;;;4995130;28;20438;-63
2023/05/13 00:16:16;;;;;;;6.07;5.67;;;;;;;;;;4995197;28;20969;-63
2023/05/13 00:18:42;;;;;;;7.00;6.60;;;;;;;;;;4995255;28;20538;-63
2023/05/13 00:21:08;;;;;;;8.03;7.53;;;;;;;;;;4995101;28;20414;-63
2023/05/13 00:23:34;;;;;;;8.63;7.90;;;;;;;;;;4995154;28;20457;-63
2023/05/13 00:26:00;;;;;;;9.07;8.30;;;;;;;;;;4995034;28;20417;-62
2023/05/13 00:28:26;;;;;;;7.67;7.20;;;;;;;;;;4994910;28;20460;-63
2023/05/13 00:30:52;;;;;;;8.87;8.27;;;;;;;;;;4993711;28;20449;-63
2023/05/13 00:33:18;;;;;;;18.63;6.70;;;;;;;;;;4995009;28;20414;-63
2023/05/13 00:35:44;;;;;;;7.23;6.47;;;;;;;;;;4994933;28;20436;-63
2023/05/13 00:38:10;;;;;;;7.23;6.60;;;;;;;;;;4994921;28;20499;-63
2023/05/13 00:40:38;;;;;;;8.30;7.80;;;;;;;;;;4994389;28;20417;-63
2023/05/13 00:43:05;;;;;;;7.37;6.63;;;;;;;;;;4992775;28;20456;-63
2023/05/13 00:45:30;;;;;;;7.40;6.90;;;;;;;;;;4994742;28;20907;-63
2023/05/13 00:48:00;;;;;;;7.67;6.87;;;;;;;;;;4994611;28;20405;-63
2023/05/13 00:50:26;;;;;;;7.70;6.67;;;;;;;;;;4994622;28;20476;-63
2023/05/13 00:52:52;;;;;;;5.73;5.53;;;;;;;;;;4993253;28;20807;-63
2023/05/13 00:55:18;;;;;;;6.60;6.30;;;;;;;;;;4994466;28;20476;-63
2023/05/13 00:57:44;;;;;;;10.03;5.60;;;;;;;;;;4994475;28;20417;-62
2023/05/13 01:00:11;;;;;;;6.53;6.23;;;;;;;;;;4994369;28;20511;-63
2023/05/13 01:02:55;;;;;;;7.07;6.47;;;;;;;;;;4994577;28;20500;-63
2023/05/13 01:05:24;;;;;;;6.73;6.43;;;;;;;;;;4994121;28;20681;-63
2023/05/13 01:07:56;;;;;;;10.10;6.77;;;;;;;;;;4994328;28;20412;-63
2023/05/13 01:10:25;;;;;;;7.30;5.97;;;;;;;;;;4994541;28;20908;-63
2023/05/13 01:12:56;;;;;;;6.07;5.87;;;;;;;;;;4994012;28;20468;-63
2023/05/13 01:15:24;;;;;;;9.60;6.67;;;;;;;;;;4994155;28;20474;-63
2023/05/13 01:17:57;;;;;;;7.93;7.13;;;;;;;;;;4994183;28;20833;-63
2023/05/13 01:20:23;;;;;;;7.20;6.80;;;;;;;;;;4994021;28;20417;-63
2023/05/13 01:22:49;;;;;;;7.30;6.80;;;;;;;;;;4994095;28;20414;-63
2023/05/13 01:25:15;;;;;;;7.40;7.00;;;;;;;;;;4993668;28;20473;-63
2023/05/13 01:27:42;;;;;;;9.60;5.87;;;;;;;;;;4994000;28;20900;-63
2023/05/13 01:30:08;;;;;;;5.80;5.60;;;;;;;;;;4993714;28;20414;-63
2023/05/13 01:32:37;;;;;;;7.53;6.97;;;;;;;;;;4993892;28;20437;-63
2023/05/13 01:35:06;;;;;;;6.57;6.27;;;;;;;;;;4993925;28;20424;-63
2023/05/13 01:37:32;;;;;;;7.13;6.67;;;;;;;;;;4992513;28;20975;-63
2023/05/13 01:39:58;;;;;;;6.50;6.20;;;;;;;;;;4993775;28;20958;-63
2023/05/13 01:42:25;;;;;;;7.57;7.10;;;;;;;;;;4993577;28;20417;-63
2023/05/13 01:44:51;;;;;;;6.93;6.57;;;;;;;;;;4993517;28;20484;-63
2023/05/13 01:47:17;;;;;;;11.70;7.43;;;;;;;;;;4993481;28;20410;-63
2023/05/13 01:49:43;;;;;;;7.70;7.00;;;;;;;;;;4993410;28;20434;-63
2023/05/13 01:52:09;;;;;;;8.13;7.40;;;;;;;;;;4992992;28;20406;-63
2023/05/13 01:54:35;;;;;;;13.40;8.60;;;;;;;;;;4993412;28;20448;-63
2023/05/13 01:57:02;;;;;;;9.50;8.30;;;;;;;;;;4993525;28;20500;-63
2023/05/13 01:59:30;;;;;;;10.33;9.33;;;;;;;;;;4993583;28;20445;-63
2023/05/13 02:01:56;;;;;;;17.93;9.20;;;;;;;;;;4993593;28;20418;-63
2023/05/13 02:04:22;;;;;;;10.57;9.77;;;;;;;;;;4993151;28;20832;-63
2023/05/13 02:06:48;;;;;;;10.50;9.60;;;;;;;;;;4993140;28;20433;-63
2023/05/13 02:09:15;;;;;;;11.00;9.80;;;;;;;;;;4993145;28;20889;-63
2023/05/13 02:11:41;;;;;;;10.80;9.97;;;;;;;;;;4993277;28;20433;-63
2023/05/13 02:14:07;;;;;;;10.50;9.63;;;;;;;;;;4993178;28;20440;-63
2023/05/13 02:16:33;;;;;;;10.53;9.67;;;;;;;;;;4993453;28;20794;-63
2023/05/13 02:18:58;;;;;;;11.57;10.57;;;;;;;;;;4993221;28;20413;-63
2023/05/13 02:21:24;;;;;;;13.03;10.97;;;;;;;;;;4992893;28;20906;-62
2023/05/13 02:23:50;;;;;;;11.43;10.53;;;;;;;;;;4993054;28;20822;-63
2023/05/13 02:26:16;;;;;;;11.70;10.57;;;;;;;;;;4993154;28;20424;-62
2023/05/13 02:28:45;;;;;;;13.53;10.50;;;;;;;;;;4993214;28;20885;-62
2023/05/13 02:31:11;;;;;;;12.80;10.17;;;;;;;;;;4993114;28;20409;-62
2023/05/13 02:33:37;;;;;;;11.50;10.40;;;;;;;;;;4992929;28;20940;-63
2023/05/13 02:36:03;;;;;;;9.70;9.00;;;;;;;;;;4992822;28;20775;-62
2023/05/13 02:38:29;;;;;;;10.90;10.00;;;;;;;;;;4992704;28;20460;-63
2023/05/13 02:40:55;;;;;;;11.30;10.20;;;;;;;;;;4992995;28;20453;-63
2023/05/13 02:43:23;;;;;;;11.20;10.00;;;;;;;;;;4992823;28;20452;-63
2023/05/13 02:45:49;;;;;;;13.37;10.40;;;;;;;;;;4992698;28;20917;-62
2023/05/13 02:48:15;;;;;;;10.57;9.67;;;;;;;;;;4992798;28;20936;-63
2023/05/13 02:50:42;;;;;;;10.57;9.57;;;;;;;;;;4992566;28;20440;-63
2023/05/13 02:53:07;;;;;;;11.17;10.10;;;;;;;;;;4992712;28;20437;-62
2023/05/13 02:55:33;;;;;;;12.47;10.37;;;;;;;;;;4992550;28;20446;-63
2023/05/13 02:57:59;;;;;;;10.57;9.83;;;;;;;;;;4991437;28;20460;-62
2023/05/13 03:00:25;;;;;;;13.70;9.83;;;;;;;;;;4992482;28;20418;-62
2023/05/13 03:02:51;;;;;;;10.47;9.67;;;;;;;;;;4992549;28;20540;-63
2023/05/13 03:05:17;;;;;;;10.97;10.07;;;;;;;;;;4994401;28;20461;-63
2023/05/13 03:07:43;;;;;;;10.40;9.30;;;;;;;;;;4996789;28;20978;-63
2023/05/13 03:10:09;;;;;;;10.73;9.90;;;;;;;;;;4996849;28;20436;-63
2023/05/13 03:12:35;;;;;;;9.57;8.77;;;;;;;;;;4996263;28;20435;-63
2023/05/13 03:15:02;;;;;;;12.00;10.10;;;;;;;;;;4996459;28;20777;-62
2023/05/13 03:17:30;;;;;;;10.33;9.30;;;;;;;;;;4996455;28;20422;-62
2023/05/13 03:19:56;;;;;;;10.83;10.03;;;;;;;;;;4996464;28;20424;-63
2023/05/13 03:22:24;;;;;;;11.50;10.50;;;;;;;;;;4994913;28;20425;-63
2023/05/13 03:24:50;;;;;;;11.37;10.53;;;;;;;;;;4994856;28;20481;-63
2023/05/13 03:27:16;;;;;;;10.47;9.67;;;;;;;;;;4996253;28;20951;-62
2023/05/13 03:29:42;;;;;;;10.50;9.70;;;;;;;;;;4996079;28;20454;-63
2023/05/13 03:32:08;;;;;;;10.73;9.47;;;;;;;;;;4996129;28;20418;-62
2023/05/13 03:34:36;;;;;;;10.90;10.10;;;;;;;;;;4995920;28;20425;-63
2023/05/13 03:37:02;;;;;;;10.90;10.00;;;;;;;;;;4996160;28;20500;-63
2023/05/13 03:39:28;;;;;;;10.83;10.00;;;;;;;;;;4996089;28;20413;-62
2023/05/13 03:41:56;;;;;;;11.30;10.13;;;;;;;;;;4995912;28;20444;-63
2023/05/13 03:44:22;;;;;;;11.00;9.73;;;;;;;;;;4995951;28;20460;-63
2023/05/13 03:46:48;;;;;;;10.80;9.80;;;;;;;;;;4995712;28;20442;-62
2023/05/13 03:49:14;;;;;;;10.53;9.57;;;;;;;;;;4995804;28;20445;-63
2023/05/13 03:51:42;;;;;;;10.57;9.90;;;;;;;;;;4995607;28;20434;-63
2023/05/13 03:54:08;;;;;;;10.43;9.60;;;;;;;;;;4995697;28;20416;-63
2023/05/13 03:56:34;;;;;;;10.43;9.63;;;;;;;;;;4995692;28;20415;-63
2023/05/13 03:59:00;;;;;;;13.50;11.57;;;;;;;;;;4995579;28;20420;-63
2023/05/13 04:01:26;;;;;;;12.53;10.17;;;;;;;;;;4995403;28;20585;-63
2023/05/13 04:03:52;;;;;;;9.47;8.87;;;;;;;;;;4995469;28;20465;-63
2023/05/13 04:06:18;;;;;;;11.60;10.40;;;;;;;;;;4995558;28;20746;-63
2023/05/13 04:08:45;;;;;;;10.57;9.70;;;;;;;;;;4995453;28;20437;-63
2023/05/13 04:11:11;;;;;;;10.57;9.87;;;;;;;;;;4995579;28;20420;-63
2023/05/13 04:13:37;;;;;;;9.13;8.60;;;;;;;;;;4995329;28;20881;-63
2023/05/13 04:16:03;;;;;;;9.13;8.53;;;;;;;;;;4993608;28;20425;-62
2023/05/13 04:18:30;;;;;;;10.37;9.23;;;;;;;;;;4995245;28;20417;-63
2023/05/13 04:20:56;;;;;;;10.37;9.17;;;;;;;;;;4993932;28;20536;-62
2023/05/13 04:23:22;;;;;;;10.50;9.80;;;;;;;;;;4993862;28;20484;-63
2023/05/13 04:25:51;;;;;;;15.60;9.60;;;;;;;;;;4995074;28;20441;-62
2023/05/13 04:28:18;;;;;;;9.03;8.43;;;;;;;;;;4995015;28;20928;-63
2023/05/13 04:30:44;;;;;;;9.13;8.47;;;;;;;;;;4995017;28;21165;-62
2023/05/13 04:33:12;;;;;;;10.00;9.20;;;;;;;;;;4995241;28;20398;-63
2023/05/13 04:35:38;;;;;;;9.30;8.60;;;;;;;;;;4994990;28;20425;-63
2023/05/13 04:38:05;;;;;;;11.73;9.10;;;;;;;;;;4994777;28;20422;-62
2023/05/13 04:40:31;;;;;;;10.17;9.27;;;;;;;;;;4994909;28;20410;-62
2023/05/13 04:42:57;;;;;;;10.27;9.00;;;;;;;;;;4994790;28;20445;-63
2023/05/13 04:45:23;;;;;;;9.67;8.80;;;;;;;;;;4994681;28;20475;-63
2023/05/13 04:47:49;;;;;;;8.90;7.73;;;;;;;;;;4994730;28;20445;-63
2023/05/13 04:50:18;;;;;;;8.70;8.10;;;;;;;;;;4994786;28;20437;-63
2023/05/13 04:52:46;;;;;;;9.73;9.03;;;;;;;;;;4994590;28;20418;-64
2023/05/13 04:55:11;;;;;;;8.77;8.17;;;;;;;;;;4994643;28;20424;-63
2023/05/13 04:57:37;;;;;;;9.50;8.57;;;;;;;;;;4994453;28;20417;-63
2023/05/13 05:00:04;;;;;;;9.80;9.10;;;;;;;;;;4994353;28;20406;-63
2023/05/13 05:02:30;;;;;;;9.47;8.77;;;;;;;;;;4994492;28;20446;-63
2023/05/13 05:04:56;;;;;;;13.43;8.00;;;;;;;;;;4994204;28;20461;-63
2023/05/13 05:07:22;;;;;;;8.30;7.87;;;;;;;;;;4994634;28;20417;-63
2023/05/13 05:09:48;;;;;;;7.43;7.00;;;;;;;;;;4994194;28;20500;-63
2023/05/13 05:12:15;;;;;;;7.60;7.10;;;;;;;;;;4994071;28;20472;-63
2023/05/13 05:14:41;;;;;;;7.23;6.63;;;;;;;;;;4992907;28;20524;-63
2023/05/13 05:17:07;;;;;;;8.33;7.80;;;;;;;;;;4994109;28;20421;-63
2023/05/13 05:19:35;;;;;;;7.13;6.83;;;;;;;;;;4993932;28;20468;-63
2023/05/13 05:22:01;;;;;;;7.30;6.80;;;;;;;;;;4994040;28;20918;-63
2023/05/13 05:24:28;;;;;;;7.57;6.97;;;;;;;;;;4993721;28;20472;-63
2023/05/13 05:26:56;;;;;;;7.20;6.70;;;;;;;;;;4992198;28;20487;-63
2023/05/13 05:29:22;;;;;;;7.37;6.97;;;;;;;;;;4993591;28;20417;-63
2023/05/13 05:31:48;;;;;;;6.40;6.10;;;;;;;;;;4993883;28;20413;-62
2023/05/13 05:34:14;;;;;;;7.70;7.00;;;;;;;;;;4993773;28;20418;-63
2023/05/13 05:36:40;;;;;;;8.23;6.30;;;;;;;;;;4993759;28;20417;-63
2023/05/13 05:39:06;;;;;;;7.53;6.87;;;;;;;;;;4993803;28;20414;-63
2023/05/13 05:41:35;;;;;;;6.40;6.10;;;;;;;;;;4993722;28;20417;-63
2023/05/13 05:44:01;;;;;;;7.63;6.87;;;;;;;;;;4993718;28;20479;-63
2023/05/13 05:46:27;;;;;;;6.57;6.27;;;;;;;;;;4993648;28;20406;-63
2023/05/13 05:48:53;;;;;;;6.30;5.80;;;;;;;;;;4993583;28;20433;-64
2023/05/13 05:51:19;;;;;;;16.03;8.10;;;;;;;;;;4993570;28;20774;-64
2023/05/13 05:53:45;;;;;;;6.93;6.20;;;;;;;;;;4993559;28;20413;-64
2023/05/13 05:56:11;;;;;;;6.90;6.40;;;;;;;;;;4993374;28;20414;-64
2023/05/13 05:58:37;;;;;;;6.53;6.23;;;;;;;;;;4993493;28;20417;-64
2023/05/13 06:01:04;;;;;;;6.53;6.30;;;;;;;;;;4993344;28;20417;-64
2023/05/13 06:03:32;;;;;;;6.40;5.77;;;;;;;;;;4993276;28;20415;-64
2023/05/13 06:05:58;;;;;;;6.90;6.50;;;;;;;;;;4993291;28;20847;-63
2023/05/13 06:08:29;;;;;;;6.90;6.20;;;;;;;;;;4993144;28;20547;-63
2023/05/13 06:10:57;;;;;;;5.77;5.67;;;;;;;;;;4993344;28;20402;-64
2023/05/13 06:13:23;;;;;;;6.40;6.00;;;;;;;;;;4991711;28;20532;-64
2023/05/13 06:15:51;;;;;;;10.30;5.60;;;;;;;;;;4993159;28;20421;-64
2023/05/13 06:18:17;;;;;;;6.97;6.50;;;;;;;;;;4993002;28;20960;-64
2023/05/13 06:20:45;;;;;;;6.93;5.67;;;;;;;;;;4993068;28;20432;-64
2023/05/13 06:23:13;;;;;;;6.37;5.97;;;;;;;;;;4993029;28;20464;-63
2023/05/13 06:25:40;;;;;;;6.50;6.20;;;;;;;;;;4993053;28;20501;-63
2023/05/13 06:28:07;;;;;;;7.27;6.83;;;;;;;;;;4993043;28;20466;-64
2023/05/13 06:30:33;;;;;;;9.43;7.30;;;;;;;;;;4992911;28;20405;-64
2023/05/13 06:32:59;;;;;;;6.27;6.00;;;;;;;;;;4992901;28;20409;-64
2023/05/13 06:35:25;;;;;;;7.90;7.40;;;;;;;;;;4992658;28;20743;-63
2023/05/13 06:37:51;;;;;;;10.77;10.07;;;;;;;;;;4992600;28;20419;-64
2023/05/13 06:40:17;;;;;;;6.83;6.43;;;;;;;;;;4991441;28;20424;-64
2023/05/13 06:42:45;;;;;;;10.90;6.67;;;;;;;;;;4992748;28;20468;-64
2023/05/13 06:45:11;;;;;;;6.90;6.60;;;;;;;;;;4991405;28;20851;-64
2023/05/13 06:47:37;;;;;;;6.50;6.30;;;;;;;;;;4992627;28;20406;-64
2023/05/13 06:50:03;;;;;;;9.53;6.53;;;;;;;;;;4992615;28;20778;-64
2023/05/13 06:52:31;;;;;;;6.20;5.93;;;;;;;;;;4992600;28;20484;-63
2023/05/13 06:54:58;;;;;;;8.63;6.20;;;;;;;;;;4993131;28;20432;-63
2023/05/13 06:57:25;;;;;;;7.77;7.27;;;;;;;;;;4992592;28;20445;-63
2023/05/13 06:59:51;;;;;;;6.30;5.80;;;;;;;;;;4992992;28;20496;-63
2023/05/13 07:02:16;;;;;;;7.17;6.90;;;;;;;;;;4992570;28;20453;-63
2023/05/13 07:04:42;;;;;;;6.50;6.03;;;;;;;;;;4992492;28;20467;-63
2023/05/13 07:07:08;;;;;;;7.33;6.87;;;;;;;;;;4992484;28;20427;-63
2023/05/13 07:09:34;;;;;;;7.23;6.83;;;;;;;;;;4991373;28;20898;-63
2023/05/13 07:12:00;;;;;;;8.07;7.47;;;;;;;;;;4992664;28;20422;-63
2023/05/13 07:14:26;;;;;;;6.97;6.67;;;;;;;;;;4992247;28;20521;-63
2023/05/13 07:16:52;;;;;;;7.37;6.97;;;;;;;;;;4992537;28;20421;-63
2023/05/13 07:19:18;;;;;;;7.30;6.90;;;;;;;;;;4992347;28;20449;-63
2023/05/13 07:21:44;;;;;;;7.40;6.80;;;;;;;;;;4992400;28;20419;-64
2023/05/13 07:24:10;;;;;;;7.83;7.13;;;;;;;;;;4992278;28;20969;-63
2023/05/13 07:26:39;;;;;;;7.80;7.37;;;;;;;;;;4992321;28;20460;-63
2023/05/13 07:29:05;;;;;;;7.40;6.90;;;;;;;;;;4992779;28;20524;-63
2023/05/13 07:31:31;;;;;;;6.10;5.80;;;;;;;;;;4992403;28;20411;-63
2023/05/13 07:33:57;;;;;;;6.40;6.10;;;;;;;;;;4992311;28;20441;-64
2023/05/13 07:36:23;;;;;;;6.73;6.30;;;;;;;;;;4992686;28;20477;-63
2023/05/13 07:38:49;;;;;;;8.47;7.87;;;;;;;;;;4992803;28;20917;-64
2023/05/13 07:41:15;;;;;;;13.00;11.90;;;;;;;;;;4992644;28;20938;-63
2023/05/13 07:43:41;;;;;;;6.70;6.40;;;;;;;;;;4992772;28;20552;-63
2023/05/13 07:46:08;;;;;;;7.63;7.03;;;;;;;;;;4992564;28;20934;-63
2023/05/13 07:48:34;;;;;;;7.07;6.73;;;;;;;;;;4992500;28;20479;-63
2023/05/13 07:51:02;;;;;;;6.90;6.37;;;;;;;;;;4993868;28;20437;-63
2023/05/13 07:53:28;;;;;;;5.70;5.50;;;;;;;;;;4994963;28;20433;-63
2023/05/13 07:55:54;;;;;;;6.27;5.77;;;;;;;;;;4995974;28;20438;-63
2023/05/13 07:58:20;;;;;;;6.47;6.17;;;;;;;;;;4995960;28;20766;-63
2023/05/13 08:00:48;;;;;;;6.87;6.50;;;;;;;;;;4995837;28;20812;-63
2023/05/13 08:03:16;;;;;;;6.13;5.73;;;;;;;;;;4996084;28;20419;-63
2023/05/13 08:05:42;;;;;;;8.27;7.50;;;;;;;;;;4995700;28;20535;-63
2023/05/13 08:08:08;;;;;;;5.90;5.70;;;;;;;;;;4995797;28;20422;-63
2023/05/13 08:10:37;;;;;;;6.00;5.70;;;;;;;;;;4995839;28;20437;-63
2023/05/13 08:13:03;;;;;;;5.83;5.50;;;;;;;;;;4995756;28;20471;-63
2023/05/13 08:15:31;;;;;;;5.20;5.00;;;;;;;;;;4995771;28;20521;-64
2023/05/13 08:17:57;;;;;;;6.83;5.90;;;;;;;;;;4995634;28;20419;-64
2023/05/13 08:20:28;;;;;;;6.00;5.80;;;;;;;;;;4995565;28;20414;-64
2023/05/13 08:22:54;;;;;;;5.30;5.10;;;;;;;;;;4995529;28;20791;-63
2023/05/13 08:25:20;;;;;;;5.80;5.30;;;;;;;;;;4994226;28;20574;-63
2023/05/13 08:27:46;;;;;;;5.60;5.20;;;;;;;;;;4995461;28;20578;-64
2023/05/13 08:30:12;;;;;;;12.47;11.23;;;;;;;;;;4995288;28;20425;-63
2023/05/13 08:32:38;;;;;;;6.37;5.97;;;;;;;;;;4995446;28;20482;-64
2023/05/13 08:35:05;;;;;;;6.20;5.80;;;;;;;;;;4995281;28;20431;-63
2023/05/13 08:37:31;;;;;;;4.40;4.20;;;;;;;;;;4995469;28;20424;-64
2023/05/13 08:40:00;;;;;;;5.27;5.03;;;;;;;;;;4995277;28;20903;-63
2023/05/13 08:42:29;;;;;;;5.57;5.03;;;;;;;;;;4995186;28;20423;-64
2023/05/13 08:44:55;;;;;;;4.83;4.40;;;;;;;;;;4994954;28;20481;-63
2023/05/13 08:47:27;;;;;;;4.50;4.40;;;;;;;;;;4993866;28;20511;-63
2023/05/13 08:49:56;;;;;;;5.17;4.87;;;;;;;;;;4993714;28;20420;-64
2023/05/13 08:52:22;;;;;;;5.30;5.10;;;;;;;;;;4995276;28;20425;-64
2023/05/13 08:54:48;;;;;;;4.50;4.30;;;;;;;;;;4995030;28;20428;-63
2023/05/13 08:57:19;;;;;;;4.43;4.33;;;;;;;;;;4995033;28;20441;-64
2023/05/13 08:59:45;;;;;;;4.60;4.47;;;;;;;;;;4995046;28;20405;-64
2023/05/13 09:02:11;;;;;;;4.63;4.50;;;;;;;;;;4992499;28;20452;-64
2023/05/13 09:04:41;;;;;;;4.83;4.73;;;;;;;;;;4994800;28;20503;-63
2023/05/13 09:07:07;;;;;;;4.17;3.97;;;;;;;;;;4994906;28;20435;-63
2023/05/13 09:09:38;;;;;;;4.10;4.00;;;;;;;;;;4994902;28;20418;-63
2023/05/13 09:12:04;;;;;;;4.83;3.80;;;;;;;;;;4994716;28;20406;-63
2023/05/13 09:14:33;;;;;;;3.33;3.33;;;;;;;;;;4994704;28;20462;-63
2023/05/13 09:17:01;;;;;;;4.83;3.77;;;;;;;;;;4994574;28;20477;-64
2023/05/13 09:19:27;;;;;;;3.70;3.60;;;;;;;;;;4994639;28;20885;-63
2023/05/13 09:21:53;;;;;;;3.23;3.23;;;;;;;;;;4994385;28;20437;-64
2023/05/13 09:24:20;;;;;;;3.90;3.60;;;;;;;;;;4994370;28;20518;-64
2023/05/13 09:26:46;;;;;;;3.23;3.23;;;;;;;;;;4994422;28;20440;-64
2023/05/13 09:29:23;;;;;;;4.73;4.53;;;;;;;;;;4994294;28;20802;-63
2023/05/13 09:31:52;;;;;;;3.70;3.60;;;;;;;;;;4994246;28;20440;-64
2023/05/13 09:34:26;;;;;;;4.20;4.10;;;;;;;;;;4994148;28;20424;-64
2023/05/13 09:37:01;;;;;;;4.13;3.93;;;;;;;;;;4994227;28;20484;-64
2023/05/13 09:39:27;;;;;;;4.90;3.63;;;;;;;;;;4994144;28;20427;-64
2023/05/13 09:41:53;;;;;;;6.17;3.80;;;;;;;;;;4992667;28;20445;-64
2023/05/13 09:44:22;;;;;;;3.23;3.23;;;;;;;;;;4993774;28;20867;-63
2023/05/13 09:46:50;;;;;;;3.63;3.43;;;;;;;;;;4993875;28;20441;-64
2023/05/13 09:49:16;;;;;;;3.67;3.57;;;;;;;;;;4993917;28;20410;-63
2023/05/13 09:51:44;;;;;;;3.50;3.30;;;;;;;;;;4993844;28;20495;-64
2023/05/13 09:54:10;;;;;;;3.50;3.30;;;;;;;;;;4993793;28;20419;-64
2023/05/13 09:56:36;;;;;;;3.60;3.60;;;;;;;;;;4992486;28;20520;-64
2023/05/13 09:59:03;;;;;;;3.03;2.93;;;;;;;;;;4993755;28;20426;-64
2023/05/13 10:01:29;;;;;;;3.33;2.97;;;;;;;;;;4993786;28;20434;-64
2023/05/13 10:03:55;;;;;;;3.13;2.93;;;;;;;;;;4993598;28;20471;-63
2023/05/13 10:06:25;;;;;;;3.27;3.20;;;;;;;;;;4993455;28;20443;-64
2023/05/13 10:08:51;;;;;;;5.53;3.63;;;;;;;;;;4991743;28;20427;-65
2023/05/13 10:11:18;;;;;;;3.23;3.13;;;;;;;;;;4993131;28;20473;-64
2023/05/13 10:13:48;;;;;;;3.67;3.57;;;;;;;;;;4992700;28;20466;-65
2023/05/13 10:16:15;;;;;;;2.97;2.97;;;;;;;;;;4993656;28;20792;-65
2023/05/13 10:18:41;;;;;;;3.50;3.30;;;;;;;;;;4993580;28;20823;-64
2023/05/13 10:21:09;;;;;;;2.90;2.90;;;;;;;;;;4992986;28;20450;-64
2023/05/13 10:23:38;;;;;;;3.73;3.53;;;;;;;;;;4993423;28;20398;-65
2023/05/13 10:26:07;;;;;;;3.27;3.17;;;;;;;;;;4992350;28;20422;-64
2023/05/13 10:28:33;;;;;;;3.07;2.87;;;;;;;;;;4993529;28;20454;-64
2023/05/13 10:31:01;;;;;;;2.80;2.60;;;;;;;;;;4993365;28;20910;-63
2023/05/13 10:33:28;;;;;;;2.70;2.70;;;;;;;;;;4993322;28;20402;-65
2023/05/13 10:36:08;;;;;;;3.50;2.87;;;;;;;;;;4993350;28;20465;-64
2023/05/13 10:38:57;;;;;;;5.43;3.17;;;;;;;;;;4993366;28;20457;-65
2023/05/13 10:41:44;;;;;;;2.87;2.80;;;;;;;;;;4981868;28;20451;-65
2023/05/13 10:44:10;;;;;;;3.17;2.73;;;;;;;;;;4991987;28;20473;-64
2023/05/13 10:46:38;;;;;;;2.90;2.90;;;;;;;;;;4993030;28;20791;-64
2023/05/13 10:49:04;;;;;;;2.90;2.63;;;;;;;;;;4993403;28;20786;-65
2023/05/13 10:51:31;;;;;;;3.43;3.13;;;;;;;;;;4993037;28;20478;-65
2023/05/13 10:53:57;;;;;;;2.70;2.53;;;;;;;;;;4993253;28;20412;-64
2023/05/13 10:56:27;;;;;;;3.33;3.23;;;;;;;;;;4993006;28;20510;-65
2023/05/13 10:59:00;;;;;;;2.47;2.37;;;;;;;;;;4993152;28;20418;-64
2023/05/13 11:01:42;;;;;;;2.47;2.47;;;;;;;;;;4993206;28;20401;-64
2023/05/13 11:04:12;;;;;;;2.53;2.43;;;;;;;;;;4993158;28;21024;-65
2023/05/13 11:06:39;;;;;;;2.47;2.40;;;;;;;;;;4991622;28;20445;-65
2023/05/13 11:09:12;;;;;;;3.00;2.90;;;;;;;;;;4992802;28;20417;-64
2023/05/13 11:11:38;;;;;;;2.43;2.43;;;;;;;;;;4993079;28;20450;-64
2023/05/13 11:14:10;;;;;;;2.73;2.53;;;;;;;;;;4991575;28;20440;-64
2023/05/13 11:16:38;;;;;;;2.30;2.20;;;;;;;;;;4992793;28;20420;-65
2023/05/13 11:19:08;;;;;;;3.13;2.20;;;;;;;;;;4992939;28;20408;-65
2023/05/13 11:21:40;;;;;;;2.50;2.40;;;;;;;;;;4992856;28;20421;-64
2023/05/13 11:24:06;;;;;;;2.40;2.30;;;;;;;;;;4992724;28;20470;-63
2023/05/13 11:26:49;;;;;;;2.10;2.00;;;;;;;;;;4995114;28;20934;-63
2023/05/13 11:29:15;;;;;;;3.43;1.90;;;;;;;;;;4996584;28;20394;-64
2023/05/13 11:31:51;;;;;;;1.83;1.73;;;;;;;;;;4996395;28;20427;-64
2023/05/13 11:34:20;;;;;;;2.30;2.10;;;;;;;;;;4996451;28;20412;-63
2023/05/13 11:36:48;;;;;;;1.90;1.90;;;;;;;;;;4996231;28;21005;-64
2023/05/13 11:39:19;;;;;;;2.17;2.17;;;;;;;;;;4995042;28;20790;-64
2023/05/13 11:41:45;;;;;;;1.70;1.70;;;;;;;;;;4996163;28;20410;-64
2023/05/13 11:44:12;;;;;;;1.80;1.80;;;;;;;;;;4996014;28;20464;-64
2023/05/13 11:46:38;;;;;;;1.83;1.83;;;;;;;;;;4996222;28;20396;-64
2023/05/13 11:49:04;;;;;;;4.43;1.63;;;;;;;;;;4996498;28;20416;-64
2023/05/13 11:51:30;;;;;;;1.87;1.87;;;;;;;;;;4996077;28;20422;-64
2023/05/13 11:54:02;;;;;;;4.50;4.13;;;;;;;;;;4996164;28;20489;-64
2023/05/13 11:56:29;;;;;;;2.33;2.23;;;;;;;;;;4995939;28;20424;-64
2023/05/13 11:58:58;;;;;;;1.70;1.70;;;;;;;;;;4995895;28;20764;-64
2023/05/13 12:01:26;;;;;;;1.60;1.50;;;;;;;;;;4995940;28;20423;-64
2023/05/13 12:04:01;;;;;;;1.53;1.53;;;;;;;;;;4995960;28;20950;-64
2023/05/13 12:06:27;;;;;;;1.30;1.30;;;;;;;;;;4996126;28;20470;-64
2023/05/13 12:08:56;;;;;;;1.47;1.47;;;;;;;;;;4995979;28;20904;-64
2023/05/13 12:11:23;;;;;;;1.20;1.20;;;;;;;;;;4995759;28;20628;-64
2023/05/13 12:13:49;;;;;;;1.93;1.60;;;;;;;;;;4995521;28;20464;-64
2023/05/13 12:16:15;;;;;;;1.70;1.60;;;;;;;;;;4995701;28;20424;-64
2023/05/13 12:18:41;;;;;;;1.80;1.70;;;;;;;;;;4995571;28;20468;-64
2023/05/13 12:21:14;;;;;;;1.20;1.20;;;;;;;;;;4995636;28;20823;-63
2023/05/13 12:23:40;;;;;;;1.60;1.60;;;;;;;;;;4994187;28;20445;-64
2023/05/13 12:26:10;;;;;;;1.80;1.80;;;;;;;;;;4994307;28;20423;-64
2023/05/13 12:28:36;;;;;;;1.97;1.97;;;;;;;;;;4995238;28;20876;-64
2023/05/13 12:31:03;;;;;;;2.23;2.13;;;;;;;;;;4995275;28;20510;-64
2023/05/13 12:33:35;;;;;;;1.90;1.90;;;;;;;;;;4995429;28;20440;-64
2023/05/13 12:36:34;;;;;;;4.60;2.60;;;;;;;;;;4995410;28;20431;-64
2023/05/13 12:39:00;;;;;;;1.93;1.93;;;;;;;;;;4995543;28;20440;-64
2023/05/13 12:41:27;;;;;;;1.77;1.70;;;;;;;;;;4995088;28;20421;-64
2023/05/13 12:44:17;;;;;;;2.03;1.93;;;;;;;;;;4993630;28;20826;-64
2023/05/13 12:46:52;;;;;;;1.90;1.80;;;;;;;;;;4987605;28;20585;-64
2023/05/13 12:49:18;;;;;;;2.40;2.30;;;;;;;;;;4995140;28;20426;-64
2023/05/13 12:51:44;;;;;;;1.97;1.87;;;;;;;;;;4994959;28;20414;-64
2023/05/13 12:54:11;;;;;;;2.30;2.20;;;;;;;;;;4994844;28;20809;-64
2023/05/13 12:56:39;;;;;;;1.80;1.80;;;;;;;;;;4995149;28;20471;-64
2023/05/13 12:59:05;;;;;;;1.50;1.50;;;;;;;;;;4994924;28;20442;-64
2023/05/13 13:01:31;;;;;;;1.03;1.03;;;;;;;;;;4995118;28;20417;-64
2023/05/13 13:03:57;;;;;;;1.30;1.30;;;;;;;;;;4994626;28;20478;-64
2023/05/13 13:06:23;;;;;;;1.37;1.37;;;;;;;;;;4994876;28;20428;-64
2023/05/13 13:08:51;;;;;;;1.93;1.83;;;;;;;;;;4994784;28;20437;-64
2023/05/13 13:11:20;;;;;;;1.20;1.20;;;;;;;;;;4994872;28;20415;-63
2023/05/13 13:13:46;;;;;;;1.60;1.60;;;;;;;;;;4993286;28;20507;-64
2023/05/13 13:16:13;;;;;;;1.63;1.57;;;;;;;;;;4994679;28;20420;-63
2023/05/13 13:18:39;;;;;;;1.67;1.60;;;;;;;;;;4994600;28;20448;-64
2023/05/13 13:21:08;;;;;;;2.00;1.50;;;;;;;;;;4994380;28;20418;-64
2023/05/13 13:23:34;;;;;;;1.27;1.27;;;;;;;;;;4993638;28;20446;-64
2023/05/13 13:26:00;;;;;;;1.33;1.33;;;;;;;;;;4993708;28;20416;-64
2023/05/13 13:28:30;;;;;;;1.63;1.53;;;;;;;;;;4993729;28;20935;-64
2023/05/13 13:30:56;;;;;;;1.57;1.57;;;;;;;;;;4994219;28;20444;-63
2023/05/13 13:33:24;;;;;;;3.50;3.20;;;;;;;;;;4993996;28;20435;-64
2023/05/13 13:35:50;;;;;;;1.87;1.87;;;;;;;;;;4994038;28;20422;-64
2023/05/13 13:38:16;;;;;;;2.83;1.70;;;;;;;;;;4993855;28;20486;-65
2023/05/13 13:40:42;;;;;;;5.90;2.00;;;;;;;;;;4994447;28;20449;-65
2023/05/13 13:43:08;;;;;;;5.97;1.90;;;;;;;;;;4994428;28;20454;-64
2023/05/13 13:45:35;;;;;;;2.20;2.10;;;;;;;;;;4993505;28;20485;-65
2023/05/13 13:48:01;;;;;;;2.07;1.90;;;;;;;;;;4993019;28;20444;-65
2023/05/13 13:50:27;;;;;;;1.57;1.57;;;;;;;;;;4993872;28;20428;-64
2023/05/13 13:52:53;;;;;;;1.80;1.70;;;;;;;;;;4994245;28;20798;-64
2023/05/13 13:55:20;;;;;;;1.20;1.20;;;;;;;;;;4994057;28;20821;-64
2023/05/13 13:57:46;;;;;;;5.20;1.33;;;;;;;;;;4993776;28;20543;-65
2023/05/13 14:00:13;;;;;;;1.90;1.80;;;;;;;;;;4993820;28;20479;-64
2023/05/13 14:02:39;;;;;;;1.80;1.70;;;;;;;;;;4993732;28;20428;-65
2023/05/13 14:05:05;;;;;;;4.50;1.50;;;;;;;;;;4993570;28;20480;-65
2023/05/13 14:07:34;;;;;;;1.80;1.80;;;;;;;;;;4993416;28;20408;-65
2023/05/13 14:10:00;;;;;;;4.10;1.70;;;;;;;;;;4993420;28;20448;-65
2023/05/13 14:12:28;;;;;;;2.50;2.30;;;;;;;;;;4993352;28;20421;-65
2023/05/13 14:14:54;;;;;;;2.27;2.23;;;;;;;;;;4992151;28;20452;-65
2023/05/13 14:17:20;;;;;;;2.80;2.73;;;;;;;;;;4993100;28;20896;-65
2023/05/13 14:19:50;;;;;;;2.03;2.03;;;;;;;;;;4993338;28;20445;-65
2023/05/13 14:22:17;;;;;;;5.43;2.40;;;;;;;;;;4993294;28;20512;-65
2023/05/13 14:24:43;;;;;;;5.50;2.40;;;;;;;;;;4992044;28;20552;-65
2023/05/13 14:27:11;;;;;;;4.53;2.40;;;;;;;;;;4993002;28;20846;-64
2023/05/13 14:29:37;;;;;;;2.60;2.50;;;;;;;;;;4993281;28;20902;-64
2023/05/13 14:32:03;;;;;;;2.30;2.30;;;;;;;;;;4993314;28;20410;-64
2023/05/13 14:34:32;;;;;;;2.30;2.30;;;;;;;;;;4993017;28;20920;-64
2023/05/13 14:36:58;;;;;;;2.30;2.30;;;;;;;;;;4993339;28;20888;-64
2023/05/13 14:39:24;;;;;;;2.40;2.40;;;;;;;;;;4991660;28;20429;-64